< < Back
Terminal Aerodrome Forecast


Current Version              Previous Versions:   1  2  3  4  5  6  7  8  9  

Terminal Aerodrome Forecast

564
FTUS42 KCAE 282048 AAA
TAFAGS
TAF AMD
KAGS 282048Z 2821/2918 14012KT P6SM VCSH BKN050
     FM290000 VRB03KT P6SM SCT040 BKN150
     FM291400 11006KT P6SM SCT040 BKN150=



Latest METAR

568
SAUS70 KWBC 290000 RRA
MTRAGS
METAR KAGS 282353Z 08003KT 10SM BKN095 26/21 A3014 RMK AO2 LTG DSNT E
AND W SLP203 T02610206 10317 20261 53003


USA.gov is the U.S. government's official web portal to all federal, state and local government web resources and services.